Time;durP1;ratioP1;P1;durP2;ratioP2;P2;SDS_P1;SDS_P2;PMS_P1;PMS_P2;Temp;Humidity;BMP_temperature;BMP_pressure;BME280_temperature;BME280_humidity;BME280_pressure;Samples;Min_cycle;Max_cycle;Signal;HPM_P1;HPM_P2
2019/10/14 00:00:43;;;;;;;6.249999;3.1;;;;;;;11.97;100;95291.33;;;;
2019/10/14 00:06:52;;;;;;;5.599999;3.2;;;;;;;11.93;100;95291.94;;;;
2019/10/14 00:07:54;;;;;;;5.650001;3;;;;;;;11.91;100;95298.54;;;;
2019/10/14 00:08:55;;;;;;;5.650001;3;;;;;;;11.91;100;95298.54;;;;
2019/10/14 00:09:56;;;;;;;5.2;3.05;;;;;;;11.89;100;95285.78;;;;
2019/10/14 00:10:57;;;;;;;5.2;3.05;;;;;;;11.89;100;95285.78;;;;
2019/10/14 00:11:58;;;;;;;5.2;3.05;;;;;;;11.89;100;95285.78;;;;
2019/10/14 00:12:59;;;;;;;4.35;3;;;;;;;11.87;100;95293.35;;;;
2019/10/14 00:14:00;;;;;;;4.35;3;;;;;;;11.87;100;95293.35;;;;
2019/10/14 00:15:01;;;;;;;4.35;3;;;;;;;11.87;100;95293.35;;;;
2019/10/14 00:16:03;;;;;;;5.25;2.9;;;;;;;11.85;100;95289.23;;;;
2019/10/14 00:17:04;;;;;;;5.25;2.9;;;;;;;11.85;100;95289.23;;;;
2019/10/14 00:18:05;;;;;;;6.600001;2.9;;;;;;;11.83;100;95299.37;;;;
2019/10/14 00:19:06;;;;;;;6.600001;2.9;;;;;;;11.83;100;95299.37;;;;
2019/10/14 00:20:23;;;;;;;6.600001;2.9;;;;;;;11.83;100;95299.37;;;;
2019/10/14 00:21:24;;;;;;;5.149999;3;;;;;;;11.81;100;95301.08;;;;
2019/10/14 00:22:25;;;;;;;5.149999;3;;;;;;;11.81;100;95301.08;;;;
2019/10/14 00:23:26;;;;;;;5.45;2.95;;;;;;;11.8;100;95301.32;;;;
2019/10/14 00:24:27;;;;;;;5.45;2.95;;;;;;;11.8;100;95301.32;;;;
2019/10/14 00:25:28;;;;;;;5.45;2.95;;;;;;;11.8;100;95301.32;;;;
2019/10/14 00:26:33;;;;;;;3.1;2.8;;;;;;;11.78;100;95302.51;;;;
2019/10/14 00:27:34;;;;;;;3.1;2.8;;;;;;;11.78;100;95302.51;;;;
2019/10/14 00:28:35;;;;;;;4.15;2.8;;;;;;;11.77;100;95305.84;;;;
2019/10/14 00:29:36;;;;;;;4.15;2.8;;;;;;;11.77;100;95305.84;;;;
2019/10/14 00:30:37;;;;;;;4.15;2.8;;;;;;;11.77;100;95305.84;;;;
2019/10/14 00:31:41;;;;;;;3.55;2.7;;;;;;;11.76;100;95304.22;;;;
2019/10/14 00:32:42;;;;;;;3.55;2.7;;;;;;;11.76;100;95304.22;;;;
2019/10/14 00:33:43;;;;;;;3.55;2.7;;;;;;;11.76;100;95304.22;;;;
2019/10/14 00:34:44;;;;;;;6.8;2.9;;;;;;;11.74;100;95307.58;;;;
2019/10/14 00:35:45;;;;;;;6.8;2.9;;;;;;;11.74;100;95307.58;;;;
2019/10/14 00:36:46;;;;;;;4.149999;2.85;;;;;;;11.73;100;95304.71;;;;
2019/10/14 00:37:48;;;;;;;4.149999;2.85;;;;;;;11.73;100;95304.71;;;;
2019/10/14 00:38:49;;;;;;;4.149999;2.85;;;;;;;11.73;100;95304.71;;;;
2019/10/14 00:39:50;;;;;;;4.149999;2.85;;;;;;;11.73;100;95304.71;;;;
2019/10/14 00:40:51;;;;;;;4.149999;2.85;;;;;;;11.73;100;95304.71;;;;
2019/10/14 00:41:53;;;;;;;4.149999;2.85;;;;;;;11.73;100;95304.71;;;;
2019/10/14 00:42:54;;;;;;;4.149999;2.85;;;;;;;11.73;100;95304.71;;;;
2019/10/14 00:43:55;;;;;;;4.149999;2.85;;;;;;;11.73;100;95304.71;;;;
2019/10/14 00:44:56;;;;;;;4.149999;2.85;;;;;;;11.73;100;95304.71;;;;
2019/10/14 00:45:57;;;;;;;4.149999;2.85;;;;;;;11.73;100;95304.71;;;;
2019/10/14 00:46:58;;;;;;;4.149999;2.85;;;;;;;11.73;100;95304.71;;;;
2019/10/14 00:48:00;;;;;;;4.5;2.8;;;;;;;11.32;100;95307.11;;;;
2019/10/14 00:49:01;;;;;;;4.5;2.8;;;;;;;11.32;100;95307.11;;;;
2019/10/14 00:50:02;;;;;;;4.450001;2.8;;;;;;;11.29;100;95313;;;;
2019/10/14 00:51:03;;;;;;;4.450001;2.8;;;;;;;11.29;100;95313;;;;
2019/10/14 00:52:04;;;;;;;4.450001;2.8;;;;;;;11.29;100;95313;;;;
2019/10/14 00:53:05;;;;;;;4.55;2.8;;;;;;;11.32;100;95306.69;;;;
2019/10/14 00:54:07;;;;;;;4.55;2.8;;;;;;;11.32;100;95306.69;;;;
2019/10/14 00:55:17;;;;;;;5.55;3.05;;;;;;;11.33;100;95305.52;;;;
2019/10/14 00:56:23;;;;;;;5.55;3.05;;;;;;;11.33;100;95305.52;;;;
2019/10/14 00:57:24;;;;;;;5.55;3.05;;;;;;;11.33;100;95305.52;;;;
2019/10/14 00:58:25;;;;;;;4.6;2.95;;;;;;;11.35;100;95305.69;;;;
2019/10/14 00:59:26;;;;;;;4.6;2.95;;;;;;;11.35;100;95305.69;;;;
2019/10/14 01:00:27;;;;;;;4.549999;2.95;;;;;;;11.35;100;95307.59;;;;
2019/10/14 01:01:29;;;;;;;4.549999;2.95;;;;;;;11.35;100;95307.59;;;;
2019/10/14 01:02:30;;;;;;;4.549999;2.95;;;;;;;11.35;100;95307.59;;;;
2019/10/14 01:03:31;;;;;;;5.349999;3.15;;;;;;;11.34;100;95309.05;;;;
2019/10/14 01:04:32;;;;;;;5.349999;3.15;;;;;;;11.34;100;95309.05;;;;
2019/10/14 01:05:33;;;;;;;5.349999;3.15;;;;;;;11.34;100;95309.05;;;;
2019/10/14 01:06:50;;;;;;;4.4;3.1;;;;;;;11.32;100;95303.99;;;;
2019/10/14 01:07:52;;;;;;;4.4;3.1;;;;;;;11.32;100;95303.99;;;;
2019/10/14 01:08:53;;;;;;;4.4;3.1;;;;;;;11.32;100;95303.99;;;;
2019/10/14 01:09:54;;;;;;;4.4;3.1;;;;;;;11.32;100;95303.99;;;;
2019/10/14 01:10:55;;;;;;;4.4;3.1;;;;;;;11.32;100;95303.99;;;;
2019/10/14 01:11:56;;;;;;;4.4;3.1;;;;;;;11.32;100;95303.99;;;;
2019/10/14 01:12:57;;;;;;;4.4;3.1;;;;;;;11.32;100;95303.99;;;;
2019/10/14 01:13:59;;;;;;;4.4;3.1;;;;;;;11.32;100;95303.99;;;;
2019/10/14 01:15:00;;;;;;;4.4;3.1;;;;;;;11.32;100;95303.99;;;;
2019/10/14 01:16:02;;;;;;;4.4;3.1;;;;;;;11.32;100;95303.99;;;;
2019/10/14 01:17:03;;;;;;;5.699999;3.15;;;;;;;10.87;100;95303.86;;;;
2019/10/14 01:18:05;;;;;;;5.699999;3.15;;;;;;;10.87;100;95303.86;;;;
2019/10/14 01:19:06;;;;;;;5.1;3.25;;;;;;;10.83;100;95299.47;;;;
2019/10/14 01:20:07;;;;;;;5.1;3.25;;;;;;;10.83;100;95299.47;;;;
2019/10/14 01:21:08;;;;;;;5.1;3.25;;;;;;;10.83;100;95299.47;;;;
2019/10/14 01:22:10;;;;;;;5.1;3.25;;;;;;;10.83;100;95299.47;;;;
2019/10/14 01:23:11;;;;;;;5.1;3.25;;;;;;;10.83;100;95299.47;;;;
2019/10/14 01:24:12;;;;;;;5.1;3.25;;;;;;;10.83;100;95299.47;;;;
2019/10/14 01:25:13;;;;;;;5.1;3.25;;;;;;;10.83;100;95299.47;;;;
2019/10/14 01:26:14;;;;;;;5.1;3.25;;;;;;;10.83;100;95299.47;;;;
2019/10/14 01:27:16;;;;;;;5.1;3.25;;;;;;;10.83;100;95299.47;;;;
2019/10/14 01:28:17;;;;;;;5.1;3.25;;;;;;;10.83;100;95299.47;;;;
2019/10/14 01:29:18;;;;;;;5.1;3.25;;;;;;;10.83;100;95299.47;;;;
2019/10/14 01:30:19;;;;;;;4.649999;2.95;;;;;;;10.53;100;95293.8;;;;
2019/10/14 01:31:21;;;;;;;4.649999;2.95;;;;;;;10.53;100;95293.8;;;;
2019/10/14 01:32:24;;;;;;;6.9;2.75;;;;;;;10.52;100;95290.93;;;;
2019/10/14 01:33:25;;;;;;;6.9;2.75;;;;;;;10.52;100;95290.93;;;;
2019/10/14 01:34:26;;;;;;;6.9;2.75;;;;;;;10.52;100;95290.93;;;;
2019/10/14 01:35:27;;;;;;;6.9;2.75;;;;;;;10.52;100;95290.93;;;;
2019/10/14 01:36:28;;;;;;;6.9;2.75;;;;;;;10.52;100;95290.93;;;;
2019/10/14 01:37:30;;;;;;;6.9;2.75;;;;;;;10.52;100;95290.93;;;;
2019/10/14 01:38:31;;;;;;;6.9;2.75;;;;;;;10.52;100;95290.93;;;;
2019/10/14 01:39:32;;;;;;;6.9;2.75;;;;;;;10.52;100;95290.93;;;;
2019/10/14 01:40:33;;;;;;;6.9;2.75;;;;;;;10.52;100;95290.93;;;;
2019/10/14 01:41:35;;;;;;;6.9;2.75;;;;;;;10.52;100;95290.93;;;;
2019/10/14 01:42:36;;;;;;;6.9;2.75;;;;;;;10.52;100;95290.93;;;;
2019/10/14 01:43:37;;;;;;;8.05;3.3;;;;;;;10.27;100;95283.45;;;;
2019/10/14 01:44:42;;;;;;;8.05;3.3;;;;;;;10.27;100;95283.45;;;;
2019/10/14 01:45:43;;;;;;;7.699999;3.65;;;;;;;10.28;100;95282;;;;
2019/10/14 01:46:44;;;;;;;7.699999;3.65;;;;;;;10.28;100;95282;;;;
2019/10/14 01:47:45;;;;;;;7.699999;3.65;;;;;;;10.28;100;95282;;;;
2019/10/14 01:48:47;;;;;;;5.799999;3.25;;;;;;;10.33;100;95281.18;;;;
2019/10/14 01:49:48;;;;;;;5.799999;3.25;;;;;;;10.33;100;95281.18;;;;
2019/10/14 01:50:49;;;;;;;5.45;3.1;;;;;;;10.38;100;95284.12;;;;
2019/10/14 01:51:50;;;;;;;5.45;3.1;;;;;;;10.38;100;95284.12;;;;
2019/10/14 01:52:51;;;;;;;5.45;3.1;;;;;;;10.38;100;95284.12;;;;
2019/10/14 01:53:53;;;;;;;5.45;3.1;;;;;;;10.38;100;95284.12;;;;
2019/10/14 01:54:54;;;;;;;5.45;3.1;;;;;;;10.38;100;95284.12;;;;
2019/10/14 01:55:55;;;;;;;5.45;3.1;;;;;;;10.38;100;95284.12;;;;
2019/10/14 01:56:56;;;;;;;5.45;3.1;;;;;;;10.38;100;95284.12;;;;
2019/10/14 01:57:57;;;;;;;5.45;3.1;;;;;;;10.38;100;95284.12;;;;
2019/10/14 01:58:59;;;;;;;5.45;3.1;;;;;;;10.38;100;95284.12;;;;
2019/10/14 02:00:00;;;;;;;5.45;3.1;;;;;;;10.38;100;95284.12;;;;
2019/10/14 02:01:02;;;;;;;5.45;3.1;;;;;;;10.38;100;95284.12;;;;
2019/10/14 02:02:03;;;;;;;5.4;3.15;;;;;;;10.1;100;95276.7;;;;
2019/10/14 02:03:05;;;;;;;5.4;3.15;;;;;;;10.1;100;95276.7;;;;
2019/10/14 02:04:06;;;;;;;6.700001;3.85;;;;;;;10.1;100;95275.36;;;;
2019/10/14 02:05:07;;;;;;;6.700001;3.85;;;;;;;10.1;100;95275.36;;;;
2019/10/14 02:06:08;;;;;;;6.700001;3.85;;;;;;;10.1;100;95275.36;;;;
2019/10/14 02:07:10;;;;;;;6.700001;3.85;;;;;;;10.1;100;95275.36;;;;
2019/10/14 02:08:11;;;;;;;6.700001;3.85;;;;;;;10.1;100;95275.36;;;;
2019/10/14 02:09:13;;;;;;;6.700001;3.85;;;;;;;10.1;100;95275.36;;;;
2019/10/14 02:10:14;;;;;;;6.700001;3.85;;;;;;;10.1;100;95275.36;;;;
2019/10/14 02:11:15;;;;;;;6.700001;3.85;;;;;;;10.1;100;95275.36;;;;
2019/10/14 02:12:17;;;;;;;6.700001;3.85;;;;;;;10.1;100;95275.36;;;;
2019/10/14 02:13:18;;;;;;;6.700001;3.85;;;;;;;10.1;100;95275.36;;;;
2019/10/14 02:14:19;;;;;;;6.700001;3.85;;;;;;;10.1;100;95275.36;;;;
2019/10/14 02:15:20;;;;;;;6.249999;3.4;;;;;;;9.9;100;95273.07;;;;
2019/10/14 02:16:21;;;;;;;6.249999;3.4;;;;;;;9.9;100;95273.07;;;;
2019/10/14 02:17:23;;;;;;;7.200001;3.8;;;;;;;9.92;100;95275;;;;
2019/10/14 02:18:24;;;;;;;7.200001;3.8;;;;;;;9.92;100;95275;;;;
2019/10/14 02:19:25;;;;;;;7.200001;3.8;;;;;;;9.92;100;95275;;;;
2019/10/14 02:20:26;;;;;;;4.799999;3.55;;;;;;;9.97;100;95275.02;;;;
2019/10/14 02:21:28;;;;;;;4.799999;3.55;;;;;;;9.97;100;95275.02;;;;
2019/10/14 02:22:29;;;;;;;4.799999;3.55;;;;;;;9.97;100;95275.02;;;;
2019/10/14 02:23:30;;;;;;;4.799999;3.55;;;;;;;9.97;100;95275.02;;;;
2019/10/14 02:24:31;;;;;;;4.799999;3.55;;;;;;;9.97;100;95275.02;;;;
2019/10/14 02:25:32;;;;;;;4.799999;3.55;;;;;;;9.97;100;95275.02;;;;
2019/10/14 02:26:33;;;;;;;4.799999;3.55;;;;;;;9.97;100;95275.02;;;;
2019/10/14 02:27:35;;;;;;;4.799999;3.55;;;;;;;9.97;100;95275.02;;;;
2019/10/14 02:28:36;;;;;;;4.799999;3.55;;;;;;;9.97;100;95275.02;;;;
2019/10/14 02:29:37;;;;;;;4.799999;3.55;;;;;;;9.97;100;95275.02;;;;
2019/10/14 02:30:38;;;;;;;5.7;3.1;;;;;;;9.85;100;95265.26;;;;
2019/10/14 02:31:39;;;;;;;5.7;3.1;;;;;;;9.85;100;95265.26;;;;
2019/10/14 02:32:40;;;;;;;5.7;3.1;;;;;;;9.85;100;95265.26;;;;
2019/10/14 02:33:42;;;;;;;5.7;3.1;;;;;;;9.85;100;95265.26;;;;
2019/10/14 02:34:43;;;;;;;5.7;3.1;;;;;;;9.85;100;95265.26;;;;
2019/10/14 02:35:59;;;;;;;5.7;3.1;;;;;;;9.85;100;95265.26;;;;
2019/10/14 02:37:22;;;;;;;5.7;3.1;;;;;;;9.85;100;95265.26;;;;
2019/10/14 02:38:24;;;;;;;5.7;3.1;;;;;;;9.85;100;95265.26;;;;
2019/10/14 02:39:25;;;;;;;5.7;3.1;;;;;;;9.85;100;95265.26;;;;
2019/10/14 02:40:27;;;;;;;5.7;3.1;;;;;;;9.85;100;95265.26;;;;
2019/10/14 02:41:28;;;;;;;4.1;3.2;;;;;;;9.67;100;95260.77;;;;
2019/10/14 02:42:29;;;;;;;4.1;3.2;;;;;;;9.67;100;95260.77;;;;
2019/10/14 02:43:30;;;;;;;4.1;3.2;;;;;;;9.67;100;95260.77;;;;
2019/10/14 02:44:31;;;;;;;5.6;3.4;;;;;;;9.7;100;95259.47;;;;
2019/10/14 02:45:32;;;;;;;5.6;3.4;;;;;;;9.7;100;95259.47;;;;
2019/10/14 02:46:34;;;;;;;5.6;3.4;;;;;;;9.7;100;95259.47;;;;
2019/10/14 02:47:35;;;;;;;5.6;3.4;;;;;;;9.7;100;95259.47;;;;
2019/10/14 02:48:36;;;;;;;5.6;3.4;;;;;;;9.7;100;95259.47;;;;
2019/10/14 02:49:37;;;;;;;5.6;3.4;;;;;;;9.7;100;95259.47;;;;
2019/10/14 02:50:38;;;;;;;5.6;3.4;;;;;;;9.7;100;95259.47;;;;
2019/10/14 02:51:40;;;;;;;5.6;3.4;;;;;;;9.7;100;95259.47;;;;
2019/10/14 02:52:41;;;;;;;5.6;3.4;;;;;;;9.7;100;95259.47;;;;
2019/10/14 02:53:42;;;;;;;5.6;3.4;;;;;;;9.7;100;95259.47;;;;
2019/10/14 02:54:43;;;;;;;4.3;3.2;;;;;;;9.59;100;95249.48;;;;
2019/10/14 02:55:44;;;;;;;4.3;3.2;;;;;;;9.59;100;95249.48;;;;
2019/10/14 02:56:45;;;;;;;4.3;3.2;;;;;;;9.59;100;95249.48;;;;
2019/10/14 02:57:47;;;;;;;5.65;2.95;;;;;;;9.62;100;95244.58;;;;
2019/10/14 02:58:48;;;;;;;5.65;2.95;;;;;;;9.62;100;95244.58;;;;
2019/10/14 02:59:49;;;;;;;5.65;2.95;;;;;;;9.62;100;95244.58;;;;
2019/10/14 03:00:51;;;;;;;5.65;2.95;;;;;;;9.62;100;95244.58;;;;
2019/10/14 03:01:52;;;;;;;5.65;2.95;;;;;;;9.62;100;95244.58;;;;
2019/10/14 03:02:53;;;;;;;5.65;2.95;;;;;;;9.62;100;95244.58;;;;
2019/10/14 03:03:54;;;;;;;5.65;2.95;;;;;;;9.62;100;95244.58;;;;
2019/10/14 03:04:56;;;;;;;5.65;2.95;;;;;;;9.62;100;95244.58;;;;
2019/10/14 03:05:57;;;;;;;5.65;2.95;;;;;;;9.62;100;95244.58;;;;
2019/10/14 03:06:58;;;;;;;5.65;2.95;;;;;;;9.62;100;95244.58;;;;
2019/10/14 03:07:59;;;;;;;5.450001;3.7;;;;;;;9.51;100;95249.83;;;;
2019/10/14 03:09:00;;;;;;;5.450001;3.7;;;;;;;9.51;100;95249.83;;;;
2019/10/14 03:10:03;;;;;;;5.450001;3.7;;;;;;;9.51;100;95249.83;;;;
2019/10/14 03:11:06;;;;;;;5.400001;3.400001;;;;;;;9.53;100;95246.25;;;;
2019/10/14 03:12:07;;;;;;;5.400001;3.400001;;;;;;;9.53;100;95246.25;;;;
2019/10/14 03:13:08;;;;;;;5.400001;3.400001;;;;;;;9.53;100;95246.25;;;;
2019/10/14 03:14:09;;;;;;;5.400001;3.400001;;;;;;;9.53;100;95246.25;;;;
2019/10/14 03:15:10;;;;;;;5.400001;3.400001;;;;;;;9.53;100;95246.25;;;;
2019/10/14 03:16:12;;;;;;;5.400001;3.400001;;;;;;;9.53;100;95246.25;;;;
2019/10/14 03:17:13;;;;;;;5.400001;3.400001;;;;;;;9.53;100;95246.25;;;;
2019/10/14 03:18:14;;;;;;;5.400001;3.400001;;;;;;;9.53;100;95246.25;;;;
2019/10/14 03:19:16;;;;;;;5.400001;3.400001;;;;;;;9.53;100;95246.25;;;;
2019/10/14 03:20:17;;;;;;;5.400001;3.400001;;;;;;;9.53;100;95246.25;;;;
2019/10/14 03:21:18;;;;;;;4.45;3.25;;;;;;;9.42;100;95248.92;;;;
2019/10/14 03:22:19;;;;;;;4.45;3.25;;;;;;;9.42;100;95248.92;;;;
2019/10/14 03:23:20;;;;;;;4.45;3.25;;;;;;;9.42;100;95248.92;;;;
2019/10/14 03:24:21;;;;;;;5.6;3.15;;;;;;;9.44;100;95251.28;;;;
2019/10/14 03:25:22;;;;;;;5.6;3.15;;;;;;;9.44;100;95251.28;;;;
2019/10/14 03:26:24;;;;;;;5.6;3.15;;;;;;;9.44;100;95251.28;;;;
2019/10/14 03:27:25;;;;;;;5.6;3.15;;;;;;;9.44;100;95251.28;;;;
2019/10/14 03:28:26;;;;;;;5.6;3.15;;;;;;;9.44;100;95251.28;;;;
2019/10/14 03:29:28;;;;;;;5.6;3.15;;;;;;;9.44;100;95251.28;;;;
2019/10/14 03:30:29;;;;;;;5.6;3.15;;;;;;;9.44;100;95251.28;;;;
2019/10/14 03:35:19;;;;;;;4.5;3.25;;;;;;;9.33;100;95245.32;;;;
2019/10/14 03:36:20;;;;;;;4.5;3.25;;;;;;;9.33;100;95245.32;;;;
2019/10/14 03:37:22;;;;;;;4.15;3.3;;;;;;;9.37;100;95243.41;;;;
2019/10/14 03:38:23;;;;;;;4.15;3.3;;;;;;;9.37;100;95243.41;;;;
2019/10/14 03:39:24;;;;;;;4.15;3.3;;;;;;;9.37;100;95243.41;;;;
2019/10/14 03:40:34;;;;;;;4.15;3.3;;;;;;;9.37;100;95243.41;;;;
2019/10/14 03:41:35;;;;;;;4.15;3.3;;;;;;;9.37;100;95243.41;;;;
2019/10/14 03:42:36;;;;;;;4.15;3.3;;;;;;;9.37;100;95243.41;;;;
2019/10/14 03:43:37;;;;;;;4.15;3.3;;;;;;;9.37;100;95243.41;;;;
2019/10/14 03:44:38;;;;;;;4.15;3.3;;;;;;;9.37;100;95243.41;;;;
2019/10/14 03:45:39;;;;;;;4.15;3.3;;;;;;;9.37;100;95243.41;;;;
2019/10/14 03:46:40;;;;;;;4.15;3.3;;;;;;;9.37;100;95243.41;;;;
2019/10/14 03:47:41;;;;;;;4.9;3.1;;;;;;;9.27;100;95239.49;;;;
2019/10/14 03:48:43;;;;;;;4.9;3.1;;;;;;;9.27;100;95239.49;;;;
2019/10/14 03:49:44;;;;;;;4.9;3.1;;;;;;;9.27;100;95239.49;;;;
2019/10/14 03:50:46;;;;;;;6.500001;3.05;;;;;;;9.3;100;95239.98;;;;
2019/10/14 03:51:47;;;;;;;6.500001;3.05;;;;;;;9.3;100;95239.98;;;;
2019/10/14 03:52:48;;;;;;;6.500001;3.05;;;;;;;9.3;100;95239.98;;;;
2019/10/14 03:53:50;;;;;;;6.500001;3.05;;;;;;;9.3;100;95239.98;;;;
2019/10/14 03:54:51;;;;;;;6.500001;3.05;;;;;;;9.3;100;95239.98;;;;
2019/10/14 03:55:52;;;;;;;6.500001;3.05;;;;;;;9.3;100;95239.98;;;;
2019/10/14 03:56:54;;;;;;;6.500001;3.05;;;;;;;9.3;100;95239.98;;;;
2019/10/14 03:58:00;;;;;;;6.500001;3.05;;;;;;;9.3;100;95239.98;;;;
2019/10/14 03:59:01;;;;;;;6.500001;3.05;;;;;;;9.3;100;95239.98;;;;
2019/10/14 04:00:02;;;;;;;6.500001;3.05;;;;;;;9.3;100;95239.98;;;;
2019/10/14 04:01:07;;;;;;;4.900001;2.9;;;;;;;9.19;100;95241.17;;;;
2019/10/14 04:02:08;;;;;;;4.900001;2.9;;;;;;;9.19;100;95241.17;;;;
2019/10/14 04:03:10;;;;;;;4.900001;2.9;;;;;;;9.19;100;95241.17;;;;
2019/10/14 04:04:11;;;;;;;6.7;3.2;;;;;;;9.22;100;95241.13;;;;
2019/10/14 04:05:12;;;;;;;6.7;3.2;;;;;;;9.22;100;95241.13;;;;
2019/10/14 04:06:14;;;;;;;6.7;3.2;;;;;;;9.22;100;95241.13;;;;
2019/10/14 04:07:15;;;;;;;6.7;3.2;;;;;;;9.22;100;95241.13;;;;
2019/10/14 04:08:16;;;;;;;6.7;3.2;;;;;;;9.22;100;95241.13;;;;
2019/10/14 04:09:17;;;;;;;6.7;3.2;;;;;;;9.22;100;95241.13;;;;
2019/10/14 04:10:18;;;;;;;6.7;3.2;;;;;;;9.22;100;95241.13;;;;
2019/10/14 04:11:19;;;;;;;6.7;3.2;;;;;;;9.22;100;95241.13;;;;
2019/10/14 04:12:21;;;;;;;6.7;3.2;;;;;;;9.22;100;95241.13;;;;
2019/10/14 04:13:22;;;;;;;6.7;3.2;;;;;;;9.22;100;95241.13;;;;
2019/10/14 04:14:24;;;;;;;4.699999;3.35;;;;;;;9.11;100;95235.16;;;;
2019/10/14 04:15:25;;;;;;;4.699999;3.35;;;;;;;9.11;100;95235.16;;;;
2019/10/14 04:16:26;;;;;;;4.699999;3.35;;;;;;;9.11;100;95235.16;;;;
2019/10/14 04:17:27;;;;;;;7.05;3.55;;;;;;;9.14;100;95232.51;;;;
2019/10/14 04:18:28;;;;;;;7.05;3.55;;;;;;;9.14;100;95232.51;;;;
2019/10/14 04:19:30;;;;;;;7.05;3.55;;;;;;;9.14;100;95232.51;;;;
2019/10/14 04:20:31;;;;;;;7.05;3.55;;;;;;;9.14;100;95232.51;;;;
2019/10/14 04:21:32;;;;;;;7.05;3.55;;;;;;;9.14;100;95232.51;;;;
2019/10/14 04:22:33;;;;;;;7.05;3.55;;;;;;;9.14;100;95232.51;;;;
2019/10/14 04:23:34;;;;;;;7.05;3.55;;;;;;;9.14;100;95232.51;;;;
2019/10/14 04:24:36;;;;;;;7.05;3.55;;;;;;;9.14;100;95232.51;;;;
2019/10/14 04:25:37;;;;;;;7.05;3.55;;;;;;;9.14;100;95232.51;;;;
2019/10/14 04:26:38;;;;;;;7.05;3.55;;;;;;;9.14;100;95232.51;;;;
2019/10/14 04:27:39;;;;;;;4.099999;3.15;;;;;;;9.04;100;95228.63;;;;
2019/10/14 04:28:40;;;;;;;4.099999;3.15;;;;;;;9.04;100;95228.63;;;;
2019/10/14 04:29:41;;;;;;;4.099999;3.15;;;;;;;9.04;100;95228.63;;;;
2019/10/14 04:30:43;;;;;;;4.099999;3.15;;;;;;;9.04;100;95228.63;;;;
2019/10/14 04:31:44;;;;;;;4.099999;3.15;;;;;;;9.04;100;95228.63;;;;
2019/10/14 04:32:45;;;;;;;4.099999;3.15;;;;;;;9.04;100;95228.63;;;;
2019/10/14 04:33:46;;;;;;;4.099999;3.15;;;;;;;9.04;100;95228.63;;;;
2019/10/14 04:34:47;;;;;;;4.099999;3.15;;;;;;;9.04;100;95228.63;;;;
2019/10/14 04:35:48;;;;;;;4.099999;3.15;;;;;;;9.04;100;95228.63;;;;
2019/10/14 04:36:49;;;;;;;4.099999;3.15;;;;;;;9.04;100;95228.63;;;;
2019/10/14 04:37:50;;;;;;;5.05;3.35;;;;;;;8.97;100;95234.63;;;;
2019/10/14 04:38:52;;;;;;;5.05;3.35;;;;;;;8.97;100;95234.63;;;;
2019/10/14 04:39:53;;;;;;;5.05;3.35;;;;;;;8.97;100;95234.63;;;;
2019/10/14 04:40:54;;;;;;;5.05;3.35;;;;;;;8.97;100;95234.63;;;;
2019/10/14 04:42:00;;;;;;;5.05;3.35;;;;;;;8.97;100;95234.63;;;;
2019/10/14 04:43:06;;;;;;;5.05;3.35;;;;;;;8.97;100;95234.63;;;;
2019/10/14 04:44:08;;;;;;;5.05;3.35;;;;;;;8.97;100;95234.63;;;;
2019/10/14 04:45:09;;;;;;;5.05;3.35;;;;;;;8.97;100;95234.63;;;;
2019/10/14 04:46:10;;;;;;;5.05;3.35;;;;;;;8.97;100;95234.63;;;;
2019/10/14 04:47:12;;;;;;;5.05;3.35;;;;;;;8.97;100;95234.63;;;;
2019/10/14 04:48:13;;;;;;;5.05;3.35;;;;;;;8.97;100;95234.63;;;;
2019/10/14 04:49:14;;;;;;;6.45;4;;;;;;;8.83;100;95236.24;;;;
2019/10/14 04:50:15;;;;;;;6.45;4;;;;;;;8.83;100;95236.24;;;;
2019/10/14 04:51:16;;;;;;;6.3;3.55;;;;;;;8.88;100;95239.61;;;;
2019/10/14 04:52:17;;;;;;;6.3;3.55;;;;;;;8.88;100;95239.61;;;;
2019/10/14 04:53:18;;;;;;;6.3;3.55;;;;;;;8.88;100;95239.61;;;;
2019/10/14 04:54:19;;;;;;;6.3;3.55;;;;;;;8.88;100;95239.61;;;;
2019/10/14 04:55:20;;;;;;;6.3;3.55;;;;;;;8.88;100;95239.61;;;;
2019/10/14 04:56:22;;;;;;;6.3;3.55;;;;;;;8.88;100;95239.61;;;;
2019/10/14 04:57:23;;;;;;;6.3;3.55;;;;;;;8.88;100;95239.61;;;;
2019/10/14 04:58:24;;;;;;;6.3;3.55;;;;;;;8.88;100;95239.61;;;;
2019/10/14 04:59:25;;;;;;;6.3;3.55;;;;;;;8.88;100;95239.61;;;;
2019/10/14 05:00:26;;;;;;;6.3;3.55;;;;;;;8.88;100;95239.61;;;;
2019/10/14 05:01:27;;;;;;;6.3;3.55;;;;;;;8.88;100;95239.61;;;;
2019/10/14 05:02:28;;;;;;;5.35;3.6;;;;;;;8.77;100;95232.3;;;;
2019/10/14 05:03:30;;;;;;;5.35;3.6;;;;;;;8.77;100;95232.3;;;;
2019/10/14 05:04:31;;;;;;;5.35;3.6;;;;;;;8.77;100;95232.3;;;;
2019/10/14 05:05:32;;;;;;;5.35;3.6;;;;;;;8.77;100;95232.3;;;;
2019/10/14 05:06:33;;;;;;;5.35;3.6;;;;;;;8.77;100;95232.3;;;;
2019/10/14 05:07:34;;;;;;;5.35;3.6;;;;;;;8.77;100;95232.3;;;;
2019/10/14 05:08:35;;;;;;;5.35;3.6;;;;;;;8.77;100;95232.3;;;;
2019/10/14 05:09:36;;;;;;;5.35;3.6;;;;;;;8.77;100;95232.3;;;;
2019/10/14 05:10:38;;;;;;;5.35;3.6;;;;;;;8.77;100;95232.3;;;;
2019/10/14 05:11:39;;;;;;;5.35;3.6;;;;;;;8.77;100;95232.3;;;;
2019/10/14 05:12:40;;;;;;;7.2;3.7;;;;;;;8.71;100;95226.87;;;;
2019/10/14 05:13:41;;;;;;;7.2;3.7;;;;;;;8.71;100;95226.87;;;;
2019/10/14 05:14:42;;;;;;;7.2;3.7;;;;;;;8.71;100;95226.87;;;;
2019/10/14 05:15:43;;;;;;;7.2;3.7;;;;;;;8.71;100;95226.87;;;;
2019/10/14 05:16:44;;;;;;;7.2;3.7;;;;;;;8.71;100;95226.87;;;;
2019/10/14 05:17:45;;;;;;;7.2;3.7;;;;;;;8.71;100;95226.87;;;;
2019/10/14 05:18:47;;;;;;;7.2;3.7;;;;;;;8.71;100;95226.87;;;;
2019/10/14 05:19:48;;;;;;;7.2;3.7;;;;;;;8.71;100;95226.87;;;;
2019/10/14 05:20:49;;;;;;;7.2;3.7;;;;;;;8.71;100;95226.87;;;;
2019/10/14 05:21:50;;;;;;;7.2;3.7;;;;;;;8.71;100;95226.87;;;;
2019/10/14 05:22:51;;;;;;;7.2;3.7;;;;;;;8.71;100;95226.87;;;;
2019/10/14 05:23:53;;;;;;;8.449999;3.85;;;;;;;8.67;100;95228.39;;;;
2019/10/14 05:24:55;;;;;;;8.449999;3.85;;;;;;;8.67;100;95228.39;;;;
2019/10/14 05:25:56;;;;;;;8.449999;3.85;;;;;;;8.67;100;95228.39;;;;
2019/10/14 05:26:57;;;;;;;8.449999;3.85;;;;;;;8.67;100;95228.39;;;;
2019/10/14 05:27:58;;;;;;;8.449999;3.85;;;;;;;8.67;100;95228.39;;;;
2019/10/14 05:28:59;;;;;;;8.449999;3.85;;;;;;;8.67;100;95228.39;;;;
2019/10/14 05:30:00;;;;;;;8.449999;3.85;;;;;;;8.67;100;95228.39;;;;
2019/10/14 05:31:02;;;;;;;8.449999;3.85;;;;;;;8.67;100;95228.39;;;;
2019/10/14 05:32:03;;;;;;;8.449999;3.85;;;;;;;8.67;100;95228.39;;;;
2019/10/14 05:33:04;;;;;;;8.449999;3.85;;;;;;;8.67;100;95228.39;;;;
2019/10/14 05:34:05;;;;;;;4.699999;3.65;;;;;;;8.69;100;95239.21;;;;
2019/10/14 05:35:20;;;;;;;4.699999;3.65;;;;;;;8.69;100;95239.21;;;;
2019/10/14 05:36:22;;;;;;;4.699999;3.65;;;;;;;8.69;100;95239.21;;;;
2019/10/14 05:37:23;;;;;;;4.699999;3.65;;;;;;;8.69;100;95239.21;;;;
2019/10/14 05:38:24;;;;;;;4.699999;3.65;;;;;;;8.69;100;95239.21;;;;
2019/10/14 05:39:25;;;;;;;4.699999;3.65;;;;;;;8.69;100;95239.21;;;;
2019/10/14 05:40:26;;;;;;;4.699999;3.65;;;;;;;8.69;100;95239.21;;;;
2019/10/14 05:41:27;;;;;;;4.699999;3.65;;;;;;;8.69;100;95239.21;;;;
2019/10/14 05:42:28;;;;;;;4.699999;3.65;;;;;;;8.69;100;95239.21;;;;
2019/10/14 05:43:29;;;;;;;4.699999;3.65;;;;;;;8.69;100;95239.21;;;;
2019/10/14 05:44:31;;;;;;;5.55;3.5;;;;;;;8.62;100;95251.51;;;;
2019/10/14 05:45:32;;;;;;;5.55;3.5;;;;;;;8.62;100;95251.51;;;;
2019/10/14 05:46:44;;;;;;;5.55;3.5;;;;;;;8.62;100;95251.51;;;;
2019/10/14 05:47:53;;;;;;;5.55;3.5;;;;;;;8.62;100;95251.51;;;;
2019/10/14 05:48:55;;;;;;;5.55;3.5;;;;;;;8.62;100;95251.51;;;;
2019/10/14 05:49:56;;;;;;;5.55;3.5;;;;;;;8.62;100;95251.51;;;;
2019/10/14 05:50:57;;;;;;;5.55;3.5;;;;;;;8.62;100;95251.51;;;;
2019/10/14 05:51:58;;;;;;;5.55;3.5;;;;;;;8.62;100;95251.51;;;;
2019/10/14 05:52:59;;;;;;;5.55;3.5;;;;;;;8.62;100;95251.51;;;;
2019/10/14 05:54:00;;;;;;;5.55;3.5;;;;;;;8.62;100;95251.51;;;;
2019/10/14 05:55:02;;;;;;;6.250001;3.45;;;;;;;8.65;100;95245.7;;;;
2019/10/14 05:56:03;;;;;;;6.250001;3.45;;;;;;;8.65;100;95245.7;;;;
2019/10/14 05:57:04;;;;;;;6.250001;3.45;;;;;;;8.65;100;95245.7;;;;
2019/10/14 05:58:05;;;;;;;6.250001;3.45;;;;;;;8.65;100;95245.7;;;;
2019/10/14 05:59:07;;;;;;;6.250001;3.45;;;;;;;8.65;100;95245.7;;;;
2019/10/14 06:00:08;;;;;;;6.250001;3.45;;;;;;;8.65;100;95245.7;;;;
2019/10/14 06:02:44;;;;;;;6.250001;3.45;;;;;;;8.65;100;95245.7;;;;
2019/10/14 06:03:45;;;;;;;6.250001;3.45;;;;;;;8.65;100;95245.7;;;;
2019/10/14 06:04:46;;;;;;;6.250001;3.45;;;;;;;8.65;100;95245.7;;;;
2019/10/14 06:05:47;;;;;;;9.650001;3.75;;;;;;;8.66;100;95243.7;;;;
2019/10/14 06:06:49;;;;;;;9.650001;3.75;;;;;;;8.66;100;95243.7;;;;
2019/10/14 06:07:50;;;;;;;9.650001;3.75;;;;;;;8.66;100;95243.7;;;;
2019/10/14 06:08:51;;;;;;;9.650001;3.75;;;;;;;8.66;100;95243.7;;;;
2019/10/14 06:09:52;;;;;;;9.650001;3.75;;;;;;;8.66;100;95243.7;;;;
2019/10/14 06:10:53;;;;;;;9.650001;3.75;;;;;;;8.66;100;95243.7;;;;
2019/10/14 06:11:55;;;;;;;9.650001;3.75;;;;;;;8.66;100;95243.7;;;;
2019/10/14 06:12:56;;;;;;;9.650001;3.75;;;;;;;8.66;100;95243.7;;;;
2019/10/14 06:13:57;;;;;;;9.650001;3.75;;;;;;;8.66;100;95243.7;;;;
2019/10/14 06:14:59;;;;;;;9.650001;3.75;;;;;;;8.66;100;95243.7;;;;
2019/10/14 06:16:00;;;;;;;7.1;4.25;;;;;;;8.79;100;95259.3;;;;
2019/10/14 06:17:02;;;;;;;7.1;4.25;;;;;;;8.79;100;95259.3;;;;
2019/10/14 06:18:03;;;;;;;7.1;4.25;;;;;;;8.79;100;95259.3;;;;
2019/10/14 06:19:04;;;;;;;7.1;4.25;;;;;;;8.79;100;95259.3;;;;
2019/10/14 06:20:05;;;;;;;7.1;4.25;;;;;;;8.79;100;95259.3;;;;
2019/10/14 06:21:06;;;;;;;7.1;4.25;;;;;;;8.79;100;95259.3;;;;
2019/10/14 06:22:07;;;;;;;7.1;4.25;;;;;;;8.79;100;95259.3;;;;
2019/10/14 06:23:08;;;;;;;7.1;4.25;;;;;;;8.79;100;95259.3;;;;
2019/10/14 06:24:10;;;;;;;7.1;4.25;;;;;;;8.79;100;95259.3;;;;
2019/10/14 06:25:11;;;;;;;7.1;4.25;;;;;;;8.79;100;95259.3;;;;
2019/10/14 06:26:12;;;;;;;7.1;4.25;;;;;;;8.79;100;95259.3;;;;